In Rescue
 
Open Full Screen Window  High Contrast Mode
Wind Gusting 25 knots
16
March 29, 2020 7:33 PM EDT
Weather Information
Wind Direction
  250 °
Wind Speed
  16 kt (18 mph)
Wind Gust
  25 kt (29 mph)
Altimeter
29.77 in
Visibility
10 SM
Temperature
10° C
50° F
Dewpoint
04° C
39° F
Humidity
67%
1hr Rain Fall
00.00 in.
24hr Rain Fall
00.44 in.
Sky Condition
Overcast @ 6,000 ft
Broken @ 4,700 ft
Scattered @ 4,000 ft
VFR

METAR KTTF 292333Z AUTO 25016G25KT 10SM SCT040 BKN047 OVC060 10/04 A2977 RMK AO2 T01020038

FAA Disclaimer: The data displayed is for advisory purposes only and is not to be used for flight planning or operations.